• Join FlightAware (Why Join?)
  • Login
  • US Flag 
05:27AM EST


 

Airport Tracker/Info


-or-


 

Live Flight TrackerFlight Track Log ✈ CSC8837 ✈ 12-Mar-2014 ✈ ZPPP / KMG - ZUWX / WXN

Flight Track Log - Related Links

Times and Time Zones

All times are in EDT time to prevent confusion due to time zone crossing. See the CSC8837 flight status page for this flight to view local times or setup timezone preferences in your user account.

Time Position Orientation Groundspeed Altitude Reporting Facility
EDT Latitude Longitude Course Direction KTS MPH feet Rate Location/Type
02:37AM 25.6059 103.3807 39° Northeast  Level Estimated
02:38AM 25.6778 103.4455 39° Northeast  Level Estimated
02:39AM 25.7497 103.5104 39° Northeast  Level Estimated
02:40AM 25.8215 103.5753 39° Northeast  Level Estimated
02:41AM 25.8933 103.6404 39° Northeast  Level Estimated
02:42AM 25.9651 103.7055 39° Northeast  Level Estimated
02:43AM 26.0368 103.7707 39° Northeast  Level Estimated
02:44AM 26.1086 103.8360 39° Northeast  Level Estimated
02:45AM 26.1803 103.9013 39° Northeast  Level Estimated
02:46AM 26.2519 103.9668 39° Northeast  Level Estimated
02:47AM 26.3235 104.0323 39° Northeast  Level Estimated
02:48AM 26.3951 104.0979 39° Northeast  Level Estimated
02:49AM 26.4667 104.1636 39° Northeast  Level Estimated
02:50AM 26.5382 104.2293 39° Northeast  Level Estimated
02:51AM 26.6097 104.2952 39° Northeast  Level Estimated
02:52AM 26.6812 104.3611 39° Northeast  Level Estimated
02:53AM 26.7527 104.4271 40° Northeast  Level Estimated
02:54AM 26.8241 104.4932 40° Northeast  Level Estimated
02:55AM 26.8955 104.5594 40° Northeast  Level Estimated
02:56AM 26.9668 104.6257 40° Northeast  Level Estimated
02:57AM 27.0381 104.6920 40° Northeast  Level Estimated
02:58AM 27.1094 104.7585 40° Northeast  Level Estimated
02:59AM 27.1807 104.8250 40° Northeast  Level Estimated
03:00AM 27.2519 104.8916 40° Northeast  Level Estimated
03:01AM 27.3231 104.9583 40° Northeast  Level Estimated
03:02AM 27.3943 105.0251 40° Northeast  Level Estimated
03:03AM 27.4654 105.0919 40° Northeast  Level Estimated
03:04AM 27.5365 105.1589 40° Northeast  Level Estimated
03:05AM 27.6076 105.2259 40° Northeast  Level Estimated
03:06AM 27.6786 105.2930 40° Northeast  Level Estimated
03:07AM 27.7496 105.3602 40° Northeast  Level Estimated
03:08AM 27.8206 105.4275 40° Northeast  Level Estimated
03:09AM 27.8915 105.4949 40° Northeast  Level Estimated
03:10AM 27.9624 105.5624 40° Northeast  Level Estimated
03:11AM 28.0333 105.6299 40° Northeast  Level Estimated
03:12AM 28.1041 105.6976 40° Northeast  Level Estimated
03:13AM 28.1749 105.7653 40° Northeast  Level Estimated
03:14AM 28.2457 105.8332 40° Northeast  Level Estimated
03:15AM 28.3165 105.9011 40° Northeast  Level Estimated
03:16AM 28.3872 105.9691 40° Northeast  Level Estimated
03:17AM 28.4578 106.0372 40° Northeast  Level Estimated
03:18AM 28.5285 106.1054 40° Northeast  Level Estimated
03:19AM 28.5991 106.1737 40° Northeast  Level Estimated
03:20AM 28.6696 106.2420 40° Northeast  Level Estimated
03:21AM 28.7402 106.3105 40° Northeast  Level Estimated
03:22AM 28.8107 106.3790 40° Northeast  Level Estimated
03:23AM 28.8811 106.4477 40° Northeast  Level Estimated
03:24AM 28.9516 106.5164 40° Northeast  Level Estimated
03:25AM 29.0220 106.5853 41° Northeast  Level Estimated
03:26AM 29.0923 106.6542 41° Northeast  Level Estimated
03:27AM 29.1627 106.7232 41° Northeast  Level Estimated
03:28AM 29.2330 106.7924 41° Northeast  Level Estimated
03:29AM 29.3032 106.8616 41° Northeast  Level Estimated
03:30AM 29.3734 106.9309 41° Northeast  Level Estimated
03:31AM 29.4436 107.0003 41° Northeast  Level Estimated
03:32AM 29.5138 107.0698 41° Northeast  Level Estimated
03:33AM 29.5839 107.1394 41° Northeast  Level Estimated
03:34AM 29.6539 107.2091 41° Northeast  Level Estimated
03:35AM 29.7240 107.2789 41° Northeast  Level Estimated
03:36AM 29.7940 107.3488 41° Northeast  Level Estimated
03:37AM 29.8640 107.4187 41° Northeast  Level Estimated
03:38AM 29.9339 107.4888 41° Northeast  Level Estimated
03:39AM 30.0038 107.5590 41° Northeast  Level Estimated
03:40AM 30.0736 107.6293 41° Northeast  Level Estimated
03:41AM 30.1434 107.6997 41° Northeast  Level Estimated
03:42AM 30.2132 107.7702 41° Northeast  Level Estimated
03:43AM 30.2830 107.8408 41° Northeast  Level Estimated
03:44AM 30.3527 107.9114 41° Northeast  Level Estimated
03:45AM 30.4223 107.9822 41° Northeast  Level Estimated
03:46AM 30.4920 108.0531 41° Northeast  Level Estimated
03:47AM 30.5616 108.1241 41° Northeast  Level Estimated
03:48AM 30.6311 108.1952 41° Northeast  Level Estimated
03:49AM 30.7006 108.2664 41° Northeast  Level Estimated
03:50AM 30.7701 108.3377 41° Northeast  Level Estimated
03:51AM 30.8361 108.4056 41° Northeast  Level Estimated
03:52AM 30.8361 108.4056 North  Level Estimated
03:53AM 30.8361 108.4056 North  Level Estimated
03:54AM 30.8361 108.4056 North  Level Estimated
03:55AM 30.8361 108.4056 North  Level Estimated
03:56AM 30.8361 108.4056 North  Level Estimated
03:57AM 30.8361 108.4056 North  Level Estimated
03:58AM 30.8361 108.4056 North  Level Estimated
03:59AM 30.8361 108.4056 North  Level Estimated
04:00AM 30.8361 108.4056 North  Level Estimated
04:01AM 30.8361 108.4056 North  Level Estimated
04:02AM 30.8361 108.4056 North  Level Estimated
04:03AM 30.8361 108.4056 North  Level Estimated
04:04AM 30.8361 108.4056 North  Level Estimated
04:05AM 30.8361 108.4056 North  Level Estimated
04:06AM 30.8361 108.4056 North  Level Estimated